Terminal Aerodrome Forecast
Issued by NWS

Home | Current Version | Previous Version | Text Only | Print | Product List | Glossary On
Versions: 1 2 3 4 5 6 7 8 9 10 11 12 13 14 15 16 17 18 19 20 21 22 23 24 25 26 27
000
FTUS46 KMTR 181721
TAFSFO
TAF
KSFO 181721Z 1818/1924 30008KT P6SM FEW009
     FM182100 29015KT P6SM FEW010
     FM190400 29008KT P6SM FEW010
     FM191000 29005KT P6SM SCT008
     FM191100 28006KT P6SM BKN010
     FM191700 31005KT P6SM SCT010
     FM192100 30011KT P6SM FEW010=

USA.gov is the U.S. government's official web portal to all federal, state and local government web resources and services.